CST,Max TemperatureF,Mean TemperatureF,Min TemperatureF,Max Dew PointF,MeanDew PointF,Min DewpointF,Max Humidity, Mean Humidity, Min Humidity, Max Sea Level PressureIn, Mean Sea Level PressureIn, Min Sea Level PressureIn, Max VisibilityMiles, Mean VisibilityMiles, Min VisibilityMiles, Max Wind SpeedMPH, Mean Wind SpeedMPH, Max Gust SpeedMPH,PrecipitationIn, CloudCover, Events, WindDirDegrees
2011-12-1,37,34,32,32,24,18,100,69,45,30.30,30.21,30.12,10,10,5,12,6,16,0.00,5,Rain-Snow,260
2011-12-2,35,28,21,28,19,12,93,67,38,30.44,30.38,30.31,10,10,7,15,6,,0.00,1,,184
2011-12-3,44,38,32,45,39,32,100,98,87,30.26,30.11,29.89,10,6,2,17,12,22,0.19,8,Rain,168
2011-12-4,46,39,32,46,35,28,100,94,87,30.24,29.99,29.76,10,8,2,17,10,24,0.06,8,Rain,266
2011-12-5,32,31,30,32,29,19,100,88,64,30.36,30.30,30.24,10,8,1,16,6,18,0.00,8,Snow,358
2011-12-6,28,24,21,19,15,10,86,64,47,30.35,30.27,30.15,10,10,10,12,7,16,0.00,5,,9
2011-12-7,30,26,21,19,15,12,80,64,47,30.09,30.00,29.93,10,10,10,18,11,23,0.00,6,,243
2011-12-8,32,26,19,19,14,1,93,63,34,30.18,30.12,30.07,10,10,7,20,9,26,0.00,5,,243
2011-12-9,23,19,14,5,2,-2,62,47,33,30.36,30.25,30.17,10,10,10,12,7,20,0.00,2,,264
2011-12-10,28,18,8,12,3,-2,73,56,29,30.44,30.38,30.31,10,10,10,18,9,24,0.00,2,,212
2011-12-11,42,32,23,28,22,18,81,68,46,30.30,30.27,30.23,10,10,10,22,14,26,0.00,0,,188
2011-12-12,39,34,30,32,29,27,100,80,65,30.32,30.30,30.29,10,8,3,13,8,,0.00,7,,173
2011-12-13,41,37,33,28,27,27,81,69,57,30.37,30.33,30.28,10,10,10,6,2,,0.00,8,,166
2011-12-14,50,40,33,50,40,30,100,99,81,30.20,29.88,29.58,10,2,0,16,8,20,0.39,8,Fog-Rain,150
2011-12-15,50,40,30,50,32,14,100,82,48,30.12,29.77,29.54,10,9,2,20,12,31,0.01,8,,261
2011-12-16,30,26,21,18,15,10,80,65,44,30.36,30.32,30.24,10,10,10,12,6,18,0.00,2,,290
2011-12-17,30,26,21,27,22,16,100,86,74,30.32,30.23,30.12,10,8,1,10,3,,0.00,7,Snow,197
2011-12-18,37,28,19,30,24,19,100,83,52,30.15,30.06,29.85,10,7,2,17,8,23,0.00,0,,196
2011-12-19,39,36,32,34,28,23,100,78,65,30.22,29.97,29.76,10,9,4,14,9,21,0.00,4,,303
2011-12-20,33,30,28,27,23,19,80,72,64,30.22,30.06,29.87,10,10,10,8,5,,0.00,5,,88
2011-12-21,35,34,32,36,32,28,100,97,87,29.81,29.72,29.68,10,5,0,10,3,,0.00,7,Fog-Snow,248
2011-12-22,32,28,23,32,27,14,100,87,59,30.24,30.11,29.92,10,7,1,12,6,16,0.00,8,Snow,336
2011-12-23,28,18,8,21,15,5,93,76,64,30.31,30.23,30.13,10,9,2,17,5,22,0.00,3,Snow,202
2011-12-24,35,27,19,28,23,18,100,81,60,30.25,30.15,30.03,10,9,4,20,8,24,0.00,2,,188
2011-12-25,37,34,30,27,24,21,80,68,56,30.27,30.07,29.95,10,10,10,14,10,22,0.00,3,,262
2011-12-26,41,34,26,28,25,23,86,72,53,30.26,30.07,29.84,10,10,10,28,11,34,0.00,1,,192
2011-12-27,35,29,21,30,24,10,93,74,55,29.95,29.71,29.60,10,10,10,21,11,30,0.00,5,,291
2011-12-28,26,20,14,16,11,9,79,67,55,30.06,29.98,29.85,10,10,10,10,6,,0.00,3,,137
2011-12-29,35,30,26,32,29,21,100,87,80,29.73,29.60,29.46,10,10,5,12,8,16,0.00,6,,268
2011-12-30,32,29,26,32,30,23,100,95,86,29.83,29.67,29.55,10,6,1,16,8,22,0.10,7,Rain-Snow,21
2011-12-31,33,25,17,34,28,18,100,98,86,29.95,29.83,29.63,10,6,4,17,6,22,0.00,5,,155